sensor_id;sensor_type;location;lat;lon;timestamp;P1;durP1;ratioP1;P2;durP2;ratioP2
22240;SDS011;11289;52.524;13.694;2022-08-14T00:00:05;8.48;;;7.07;;
22240;SDS011;11289;52.524;13.694;2022-08-14T00:02:36;8.43;;;7.68;;
22240;SDS011;11289;52.524;13.694;2022-08-14T00:05:01;8.18;;;5.85;;
22240;SDS011;11289;52.524;13.694;2022-08-14T00:07:27;7.65;;;6.72;;
22240;SDS011;11289;52.524;13.694;2022-08-14T00:09:52;7.45;;;6.50;;
22240;SDS011;11289;52.524;13.694;2022-08-14T00:12:18;7.25;;;6.55;;
22240;SDS011;11289;52.524;13.694;2022-08-14T00:14:44;8.80;;;7.20;;
22240;SDS011;11289;52.524;13.694;2022-08-14T00:17:09;7.80;;;7.10;;
22240;SDS011;11289;52.524;13.694;2022-08-14T00:19:35;7.32;;;6.63;;
22240;SDS011;11289;52.524;13.694;2022-08-14T00:22:00;8.18;;;7.32;;
22240;SDS011;11289;52.524;13.694;2022-08-14T00:24:26;11.55;;;8.10;;
22240;SDS011;11289;52.524;13.694;2022-08-14T00:26:51;8.65;;;7.93;;
22240;SDS011;11289;52.524;13.694;2022-08-14T00:29:17;8.45;;;7.65;;
22240;SDS011;11289;52.524;13.694;2022-08-14T00:31:42;9.60;;;7.38;;
22240;SDS011;11289;52.524;13.694;2022-08-14T00:34:08;11.55;;;7.60;;
22240;SDS011;11289;52.524;13.694;2022-08-14T00:36:33;12.52;;;8.10;;
22240;SDS011;11289;52.524;13.694;2022-08-14T00:38:59;7.95;;;7.25;;
22240;SDS011;11289;52.524;13.694;2022-08-14T00:41:29;8.13;;;7.38;;
22240;SDS011;11289;52.524;13.694;2022-08-14T00:43:55;9.00;;;7.38;;
22240;SDS011;11289;52.524;13.694;2022-08-14T00:46:21;8.75;;;7.85;;
22240;SDS011;11289;52.524;13.694;2022-08-14T00:48:46;8.90;;;7.07;;
22240;SDS011;11289;52.524;13.694;2022-08-14T00:51:13;9.02;;;8.13;;
22240;SDS011;11289;52.524;13.694;2022-08-14T00:53:39;8.60;;;7.65;;
22240;SDS011;11289;52.524;13.694;2022-08-14T00:56:05;9.07;;;7.75;;
22240;SDS011;11289;52.524;13.694;2022-08-14T00:58:32;9.48;;;8.38;;
22240;SDS011;11289;52.524;13.694;2022-08-14T01:01:03;9.52;;;7.93;;
22240;SDS011;11289;52.524;13.694;2022-08-14T01:03:33;11.02;;;8.70;;
22240;SDS011;11289;52.524;13.694;2022-08-14T01:06:04;8.63;;;7.82;;
22240;SDS011;11289;52.524;13.694;2022-08-14T01:08:32;7.75;;;6.95;;
22240;SDS011;11289;52.524;13.694;2022-08-14T01:10:58;10.27;;;8.27;;
22240;SDS011;11289;52.524;13.694;2022-08-14T01:13:29;8.65;;;7.75;;
22240;SDS011;11289;52.524;13.694;2022-08-14T01:15:59;9.40;;;8.38;;
22240;SDS011;11289;52.524;13.694;2022-08-14T01:18:26;9.10;;;8.23;;
22240;SDS011;11289;52.524;13.694;2022-08-14T01:21:12;9.85;;;8.40;;
22240;SDS011;11289;52.524;13.694;2022-08-14T01:23:48;8.45;;;7.53;;
22240;SDS011;11289;52.524;13.694;2022-08-14T01:26:15;9.63;;;7.57;;
22240;SDS011;11289;52.524;13.694;2022-08-14T01:28:45;10.18;;;8.63;;
22240;SDS011;11289;52.524;13.694;2022-08-14T01:31:24;8.95;;;8.13;;
22240;SDS011;11289;52.524;13.694;2022-08-14T01:33:56;10.33;;;8.57;;
22240;SDS011;11289;52.524;13.694;2022-08-14T01:36:24;8.30;;;7.55;;
22240;SDS011;11289;52.524;13.694;2022-08-14T01:38:53;8.88;;;8.07;;
22240;SDS011;11289;52.524;13.694;2022-08-14T01:41:23;9.10;;;8.20;;
22240;SDS011;11289;52.524;13.694;2022-08-14T01:43:54;9.65;;;8.20;;
22240;SDS011;11289;52.524;13.694;2022-08-14T01:46:29;9.95;;;8.38;;
22240;SDS011;11289;52.524;13.694;2022-08-14T01:48:58;10.60;;;8.75;;
22240;SDS011;11289;52.524;13.694;2022-08-14T01:51:25;8.95;;;7.97;;
22240;SDS011;11289;52.524;13.694;2022-08-14T01:54:12;9.75;;;8.00;;
22240;SDS011;11289;52.524;13.694;2022-08-14T01:56:39;9.18;;;8.27;;
22240;SDS011;11289;52.524;13.694;2022-08-14T01:59:07;9.82;;;8.85;;
22240;SDS011;11289;52.524;13.694;2022-08-14T02:01:34;10.07;;;8.90;;
22240;SDS011;11289;52.524;13.694;2022-08-14T02:04:03;9.40;;;8.40;;
22240;SDS011;11289;52.524;13.694;2022-08-14T02:06:29;10.38;;;8.75;;
22240;SDS011;11289;52.524;13.694;2022-08-14T02:08:55;9.05;;;8.25;;
22240;SDS011;11289;52.524;13.694;2022-08-14T02:11:20;10.18;;;9.27;;
22240;SDS011;11289;52.524;13.694;2022-08-14T02:16:22;12.13;;;8.57;;
22240;SDS011;11289;52.524;13.694;2022-08-14T02:18:50;9.50;;;8.35;;
22240;SDS011;11289;52.524;13.694;2022-08-14T02:21:18;10.27;;;9.18;;
22240;SDS011;11289;52.524;13.694;2022-08-14T02:23:47;9.32;;;8.43;;
22240;SDS011;11289;52.524;13.694;2022-08-14T02:26:16;10.68;;;8.93;;
22240;SDS011;11289;52.524;13.694;2022-08-14T02:28:43;8.93;;;8.15;;
22240;SDS011;11289;52.524;13.694;2022-08-14T02:31:10;11.15;;;8.80;;
22240;SDS011;11289;52.524;13.694;2022-08-14T02:33:37;9.63;;;8.45;;
22240;SDS011;11289;52.524;13.694;2022-08-14T02:36:02;10.25;;;9.30;;
22240;SDS011;11289;52.524;13.694;2022-08-14T02:38:29;10.65;;;9.55;;
22240;SDS011;11289;52.524;13.694;2022-08-14T02:40:57;9.98;;;8.98;;
22240;SDS011;11289;52.524;13.694;2022-08-14T02:43:23;9.88;;;8.88;;
22240;SDS011;11289;52.524;13.694;2022-08-14T02:45:51;10.95;;;9.75;;
22240;SDS011;11289;52.524;13.694;2022-08-14T02:48:16;10.60;;;9.40;;
22240;SDS011;11289;52.524;13.694;2022-08-14T02:50:42;10.05;;;9.15;;
22240;SDS011;11289;52.524;13.694;2022-08-14T02:53:08;10.30;;;9.27;;
22240;SDS011;11289;52.524;13.694;2022-08-14T02:55:34;10.93;;;8.93;;
22240;SDS011;11289;52.524;13.694;2022-08-14T02:57:59;10.35;;;9.40;;
22240;SDS011;11289;52.524;13.694;2022-08-14T03:00:25;10.85;;;9.80;;
22240;SDS011;11289;52.524;13.694;2022-08-14T03:02:50;10.90;;;9.50;;
22240;SDS011;11289;52.524;13.694;2022-08-14T03:05:16;10.75;;;9.68;;
22240;SDS011;11289;52.524;13.694;2022-08-14T03:07:42;10.95;;;9.52;;
22240;SDS011;11289;52.524;13.694;2022-08-14T03:10:08;10.38;;;9.02;;
22240;SDS011;11289;52.524;13.694;2022-08-14T03:12:35;11.93;;;9.75;;
22240;SDS011;11289;52.524;13.694;2022-08-14T03:15:02;10.00;;;9.13;;
22240;SDS011;11289;52.524;13.694;2022-08-14T03:17:37;10.73;;;9.73;;
22240;SDS011;11289;52.524;13.694;2022-08-14T03:20:03;11.25;;;10.13;;
22240;SDS011;11289;52.524;13.694;2022-08-14T03:22:30;9.30;;;8.45;;
22240;SDS011;11289;52.524;13.694;2022-08-14T03:24:57;9.73;;;8.57;;
22240;SDS011;11289;52.524;13.694;2022-08-14T03:27:24;10.55;;;9.32;;
22240;SDS011;11289;52.524;13.694;2022-08-14T03:29:55;10.45;;;9.32;;
22240;SDS011;11289;52.524;13.694;2022-08-14T03:32:20;10.98;;;9.68;;
22240;SDS011;11289;52.524;13.694;2022-08-14T03:34:46;11.82;;;9.75;;
22240;SDS011;11289;52.524;13.694;2022-08-14T03:37:12;13.18;;;9.00;;
22240;SDS011;11289;52.524;13.694;2022-08-14T03:39:37;10.63;;;9.63;;
22240;SDS011;11289;52.524;13.694;2022-08-14T03:42:03;10.70;;;9.60;;
22240;SDS011;11289;52.524;13.694;2022-08-14T03:44:29;10.75;;;9.65;;
22240;SDS011;11289;52.524;13.694;2022-08-14T03:46:59;10.40;;;9.23;;
22240;SDS011;11289;52.524;13.694;2022-08-14T03:49:24;10.68;;;9.35;;
22240;SDS011;11289;52.524;13.694;2022-08-14T03:51:50;11.43;;;9.57;;
22240;SDS011;11289;52.524;13.694;2022-08-14T03:54:15;11.60;;;9.60;;
22240;SDS011;11289;52.524;13.694;2022-08-14T03:56:41;10.73;;;9.75;;
22240;SDS011;11289;52.524;13.694;2022-08-14T03:59:09;10.27;;;7.88;;
22240;SDS011;11289;52.524;13.694;2022-08-14T04:01:36;10.00;;;8.98;;
22240;SDS011;11289;52.524;13.694;2022-08-14T04:04:06;12.85;;;9.60;;
22240;SDS011;11289;52.524;13.694;2022-08-14T04:06:33;10.85;;;9.80;;
22240;SDS011;11289;52.524;13.694;2022-08-14T04:09:00;10.27;;;9.27;;
22240;SDS011;11289;52.524;13.694;2022-08-14T04:11:25;11.50;;;10.00;;
22240;SDS011;11289;52.524;13.694;2022-08-14T04:13:51;11.20;;;10.00;;
22240;SDS011;11289;52.524;13.694;2022-08-14T04:16:17;11.05;;;9.82;;
22240;SDS011;11289;52.524;13.694;2022-08-14T04:18:46;11.05;;;10.05;;
22240;SDS011;11289;52.524;13.694;2022-08-14T04:21:13;11.20;;;9.80;;
22240;SDS011;11289;52.524;13.694;2022-08-14T04:23:39;11.10;;;9.70;;
22240;SDS011;11289;52.524;13.694;2022-08-14T04:26:07;10.23;;;9.18;;
22240;SDS011;11289;52.524;13.694;2022-08-14T04:28:35;12.27;;;10.98;;
22240;SDS011;11289;52.524;13.694;2022-08-14T04:31:03;12.20;;;10.50;;
22240;SDS011;11289;52.524;13.694;2022-08-14T04:33:28;11.48;;;10.30;;
22240;SDS011;11289;52.524;13.694;2022-08-14T04:35:54;13.45;;;11.23;;
22240;SDS011;11289;52.524;13.694;2022-08-14T04:38:20;12.35;;;11.07;;
22240;SDS011;11289;52.524;13.694;2022-08-14T04:41:05;11.10;;;9.98;;
22240;SDS011;11289;52.524;13.694;2022-08-14T04:43:50;14.00;;;9.88;;
22240;SDS011;11289;52.524;13.694;2022-08-14T04:46:16;10.80;;;9.80;;
22240;SDS011;11289;52.524;13.694;2022-08-14T04:48:44;12.18;;;9.98;;
22240;SDS011;11289;52.524;13.694;2022-08-14T04:51:11;12.48;;;10.27;;
22240;SDS011;11289;52.524;13.694;2022-08-14T04:53:38;10.40;;;9.27;;
22240;SDS011;11289;52.524;13.694;2022-08-14T04:56:06;11.13;;;10.02;;
22240;SDS011;11289;52.524;13.694;2022-08-14T04:58:32;12.05;;;10.85;;
22240;SDS011;11289;52.524;13.694;2022-08-14T05:00:59;12.05;;;10.18;;
22240;SDS011;11289;52.524;13.694;2022-08-14T05:03:28;13.07;;;11.13;;
22240;SDS011;11289;52.524;13.694;2022-08-14T05:05:56;11.20;;;10.00;;
22240;SDS011;11289;52.524;13.694;2022-08-14T05:08:23;12.05;;;10.80;;
22240;SDS011;11289;52.524;13.694;2022-08-14T05:10:51;11.82;;;10.52;;
22240;SDS011;11289;52.524;13.694;2022-08-14T05:13:18;12.35;;;11.02;;
22240;SDS011;11289;52.524;13.694;2022-08-14T05:15:49;18.10;;;15.18;;
22240;SDS011;11289;52.524;13.694;2022-08-14T05:18:18;19.02;;;16.27;;
22240;SDS011;11289;52.524;13.694;2022-08-14T05:20:46;14.82;;;13.30;;
22240;SDS011;11289;52.524;13.694;2022-08-14T05:23:16;14.90;;;11.38;;
22240;SDS011;11289;52.524;13.694;2022-08-14T05:25:44;14.00;;;10.98;;
22240;SDS011;11289;52.524;13.694;2022-08-14T05:28:16;12.85;;;11.55;;
22240;SDS011;11289;52.524;13.694;2022-08-14T05:30:48;13.45;;;12.10;;
22240;SDS011;11289;52.524;13.694;2022-08-14T05:33:15;12.90;;;11.70;;
22240;SDS011;11289;52.524;13.694;2022-08-14T05:35:43;15.30;;;11.75;;
22240;SDS011;11289;52.524;13.694;2022-08-14T05:38:14;11.77;;;10.35;;
22240;SDS011;11289;52.524;13.694;2022-08-14T05:40:43;12.40;;;11.10;;
22240;SDS011;11289;52.524;13.694;2022-08-14T05:43:11;13.57;;;11.75;;
22240;SDS011;11289;52.524;13.694;2022-08-14T05:45:37;11.50;;;10.40;;
22240;SDS011;11289;52.524;13.694;2022-08-14T05:48:03;13.13;;;11.85;;
22240;SDS011;11289;52.524;13.694;2022-08-14T05:50:30;12.80;;;11.50;;
22240;SDS011;11289;52.524;13.694;2022-08-14T05:52:56;14.05;;;10.48;;
22240;SDS011;11289;52.524;13.694;2022-08-14T05:55:22;13.38;;;12.00;;
22240;SDS011;11289;52.524;13.694;2022-08-14T06:00:38;14.25;;;11.90;;
22240;SDS011;11289;52.524;13.694;2022-08-14T06:03:10;12.48;;;11.23;;
22240;SDS011;11289;52.524;13.694;2022-08-14T06:05:38;13.25;;;11.43;;
22240;SDS011;11289;52.524;13.694;2022-08-14T06:08:05;12.43;;;11.23;;
22240;SDS011;11289;52.524;13.694;2022-08-14T06:10:39;12.27;;;11.18;;
22240;SDS011;11289;52.524;13.694;2022-08-14T06:13:04;13.55;;;12.25;;
22240;SDS011;11289;52.524;13.694;2022-08-14T06:15:30;12.98;;;11.25;;
22240;SDS011;11289;52.524;13.694;2022-08-14T06:17:55;12.50;;;11.20;;
22240;SDS011;11289;52.524;13.694;2022-08-14T06:20:21;13.23;;;11.20;;
22240;SDS011;11289;52.524;13.694;2022-08-14T06:22:48;13.25;;;11.82;;
22240;SDS011;11289;52.524;13.694;2022-08-14T06:25:14;12.85;;;11.57;;
22240;SDS011;11289;52.524;13.694;2022-08-14T06:27:44;12.63;;;11.52;;
22240;SDS011;11289;52.524;13.694;2022-08-14T06:30:12;13.95;;;12.55;;
22240;SDS011;11289;52.524;13.694;2022-08-14T06:32:39;13.25;;;12.02;;
22240;SDS011;11289;52.524;13.694;2022-08-14T06:35:05;13.15;;;11.85;;
22240;SDS011;11289;52.524;13.694;2022-08-14T06:38:05;17.52;;;14.90;;
22240;SDS011;11289;52.524;13.694;2022-08-14T06:40:28;13.77;;;12.45;;
22240;SDS011;11289;52.524;13.694;2022-08-14T06:42:57;13.85;;;12.23;;
22240;SDS011;11289;52.524;13.694;2022-08-14T06:45:24;12.68;;;11.48;;
22240;SDS011;11289;52.524;13.694;2022-08-14T06:47:50;13.27;;;11.65;;
22240;SDS011;11289;52.524;13.694;2022-08-14T06:50:16;13.82;;;11.80;;
22240;SDS011;11289;52.524;13.694;2022-08-14T06:52:43;12.30;;;10.52;;
22240;SDS011;11289;52.524;13.694;2022-08-14T06:55:10;12.32;;;10.98;;
22240;SDS011;11289;52.524;13.694;2022-08-14T06:57:37;11.50;;;10.40;;
22240;SDS011;11289;52.524;13.694;2022-08-14T07:00:14;12.38;;;11.18;;
22240;SDS011;11289;52.524;13.694;2022-08-14T07:02:43;12.02;;;9.80;;
22240;SDS011;11289;52.524;13.694;2022-08-14T07:05:28;11.98;;;9.95;;
22240;SDS011;11289;52.524;13.694;2022-08-14T07:08:12;11.90;;;10.13;;
22240;SDS011;11289;52.524;13.694;2022-08-14T07:10:38;11.00;;;9.93;;
22240;SDS011;11289;52.524;13.694;2022-08-14T07:13:04;11.00;;;10.07;;
22240;SDS011;11289;52.524;13.694;2022-08-14T07:15:30;11.70;;;10.13;;
22240;SDS011;11289;52.524;13.694;2022-08-14T07:17:56;11.05;;;9.65;;
22240;SDS011;11289;52.524;13.694;2022-08-14T07:20:22;11.32;;;10.23;;
22240;SDS011;11289;52.524;13.694;2022-08-14T07:22:48;10.77;;;9.57;;
22240;SDS011;11289;52.524;13.694;2022-08-14T07:25:14;12.45;;;11.05;;
22240;SDS011;11289;52.524;13.694;2022-08-14T07:27:40;10.60;;;9.50;;
22240;SDS011;11289;52.524;13.694;2022-08-14T07:30:06;12.57;;;9.80;;
22240;SDS011;11289;52.524;13.694;2022-08-14T07:32:33;10.98;;;9.32;;
22240;SDS011;11289;52.524;13.694;2022-08-14T07:34:58;10.02;;;9.00;;
22240;SDS011;11289;52.524;13.694;2022-08-14T07:37:23;12.02;;;9.00;;
22240;SDS011;11289;52.524;13.694;2022-08-14T07:39:49;13.63;;;9.10;;
22240;SDS011;11289;52.524;13.694;2022-08-14T07:42:15;11.90;;;9.05;;
22240;SDS011;11289;52.524;13.694;2022-08-14T07:44:40;11.43;;;8.50;;
22240;SDS011;11289;52.524;13.694;2022-08-14T07:47:06;10.80;;;9.70;;
22240;SDS011;11289;52.524;13.694;2022-08-14T07:49:32;9.88;;;8.88;;
22240;SDS011;11289;52.524;13.694;2022-08-14T07:51:58;10.00;;;8.88;;
22240;SDS011;11289;52.524;13.694;2022-08-14T07:54:25;9.15;;;8.27;;
22240;SDS011;11289;52.524;13.694;2022-08-14T07:56:53;9.05;;;8.25;;
22240;SDS011;11289;52.524;13.694;2022-08-14T07:59:18;9.10;;;7.88;;
22240;SDS011;11289;52.524;13.694;2022-08-14T08:01:46;10.05;;;8.55;;
22240;SDS011;11289;52.524;13.694;2022-08-14T08:04:12;8.25;;;7.43;;
22240;SDS011;11289;52.524;13.694;2022-08-14T08:06:37;9.18;;;7.25;;
22240;SDS011;11289;52.524;13.694;2022-08-14T08:09:03;11.05;;;7.63;;
22240;SDS011;11289;52.524;13.694;2022-08-14T08:11:33;8.45;;;7.70;;
22240;SDS011;11289;52.524;13.694;2022-08-14T08:14:00;8.57;;;7.47;;
22240;SDS011;11289;52.524;13.694;2022-08-14T08:16:30;8.43;;;6.88;;
22240;SDS011;11289;52.524;13.694;2022-08-14T08:18:57;7.63;;;6.80;;
22240;SDS011;11289;52.524;13.694;2022-08-14T08:21:23;9.90;;;7.70;;
22240;SDS011;11289;52.524;13.694;2022-08-14T08:23:48;7.18;;;6.38;;
22240;SDS011;11289;52.524;13.694;2022-08-14T08:26:14;9.45;;;5.78;;
22240;SDS011;11289;52.524;13.694;2022-08-14T08:28:39;9.63;;;5.82;;
22240;SDS011;11289;52.524;13.694;2022-08-14T08:31:05;6.38;;;5.78;;
22240;SDS011;11289;52.524;13.694;2022-08-14T08:33:33;12.32;;;5.25;;
22240;SDS011;11289;52.524;13.694;2022-08-14T08:36:07;8.43;;;6.10;;
22240;SDS011;11289;52.524;13.694;2022-08-14T08:38:35;8.77;;;5.32;;
22240;SDS011;11289;52.524;13.694;2022-08-14T08:41:01;6.80;;;5.45;;
22240;SDS011;11289;52.524;13.694;2022-08-14T08:45:58;7.53;;;4.45;;
22240;SDS011;11289;52.524;13.694;2022-08-14T08:48:24;5.25;;;4.70;;
22240;SDS011;11289;52.524;13.694;2022-08-14T08:50:57;4.65;;;4.13;;
22240;SDS011;11289;52.524;13.694;2022-08-14T08:53:34;5.20;;;4.68;;
22240;SDS011;11289;52.524;13.694;2022-08-14T08:56:00;4.85;;;4.35;;
22240;SDS011;11289;52.524;13.694;2022-08-14T08:58:27;4.97;;;4.50;;
22240;SDS011;11289;52.524;13.694;2022-08-14T09:00:57;6.35;;;4.63;;
22240;SDS011;11289;52.524;13.694;2022-08-14T09:03:24;5.50;;;4.95;;
22240;SDS011;11289;52.524;13.694;2022-08-14T09:05:56;5.43;;;4.93;;
22240;SDS011;11289;52.524;13.694;2022-08-14T09:08:35;5.35;;;4.03;;
22240;SDS011;11289;52.524;13.694;2022-08-14T09:11:03;6.68;;;4.72;;
22240;SDS011;11289;52.524;13.694;2022-08-14T09:13:31;6.88;;;4.95;;
22240;SDS011;11289;52.524;13.694;2022-08-14T09:15:56;5.55;;;3.83;;
22240;SDS011;11289;52.524;13.694;2022-08-14T09:18:22;4.72;;;4.32;;
22240;SDS011;11289;52.524;13.694;2022-08-14T09:20:52;6.38;;;4.18;;
22240;SDS011;11289;52.524;13.694;2022-08-14T09:23:19;5.68;;;4.13;;
22240;SDS011;11289;52.524;13.694;2022-08-14T09:25:46;6.80;;;4.60;;
22240;SDS011;11289;52.524;13.694;2022-08-14T09:28:14;8.48;;;4.35;;
22240;SDS011;11289;52.524;13.694;2022-08-14T09:31:00;4.90;;;4.35;;
22240;SDS011;11289;52.524;13.694;2022-08-14T09:53:01;7.03;;;4.70;;
22240;SDS011;11289;52.524;13.694;2022-08-14T09:55:30;7.38;;;5.78;;
22240;SDS011;11289;52.524;13.694;2022-08-14T09:58:34;5.57;;;3.42;;
22240;SDS011;11289;52.524;13.694;2022-08-14T10:01:06;5.07;;;3.55;;
22240;SDS011;11289;52.524;13.694;2022-08-14T10:03:37;5.30;;;3.13;;
22240;SDS011;11289;52.524;13.694;2022-08-14T10:06:13;4.95;;;3.70;;
22240;SDS011;11289;52.524;13.694;2022-08-14T10:08:47;6.32;;;3.50;;
22240;SDS011;11289;52.524;13.694;2022-08-14T10:13:41;6.22;;;4.18;;
22240;SDS011;11289;52.524;13.694;2022-08-14T10:16:07;4.57;;;3.90;;
22240;SDS011;11289;52.524;13.694;2022-08-14T10:18:33;3.97;;;3.63;;
22240;SDS011;11289;52.524;13.694;2022-08-14T10:20:58;5.40;;;3.78;;
22240;SDS011;11289;52.524;13.694;2022-08-14T10:23:26;6.50;;;4.53;;
22240;SDS011;11289;52.524;13.694;2022-08-14T10:26:05;4.63;;;4.18;;
22240;SDS011;11289;52.524;13.694;2022-08-14T10:28:42;5.75;;;4.10;;
22240;SDS011;11289;52.524;13.694;2022-08-14T10:31:43;5.95;;;3.75;;
22240;SDS011;11289;52.524;13.694;2022-08-14T10:36:30;8.10;;;4.25;;
22240;SDS011;11289;52.524;13.694;2022-08-14T10:39:05;7.30;;;3.90;;
22240;SDS011;11289;52.524;13.694;2022-08-14T10:41:36;5.95;;;3.92;;
22240;SDS011;11289;52.524;13.694;2022-08-14T10:44:11;3.90;;;3.60;;
22240;SDS011;11289;52.524;13.694;2022-08-14T10:46:59;4.10;;;3.42;;
22240;SDS011;11289;52.524;13.694;2022-08-14T10:49:27;5.68;;;3.88;;
22240;SDS011;11289;52.524;13.694;2022-08-14T10:51:58;6.00;;;4.75;;
22240;SDS011;11289;52.524;13.694;2022-08-14T10:54:36;6.40;;;4.13;;
22240;SDS011;11289;52.524;13.694;2022-08-14T10:57:25;5.65;;;4.25;;
22240;SDS011;11289;52.524;13.694;2022-08-14T10:59:55;4.20;;;3.55;;
22240;SDS011;11289;52.524;13.694;2022-08-14T11:05:00;3.90;;;3.45;;
22240;SDS011;11289;52.524;13.694;2022-08-14T11:07:28;6.65;;;4.00;;
22240;SDS011;11289;52.524;13.694;2022-08-14T11:09:55;5.70;;;4.00;;
22240;SDS011;11289;52.524;13.694;2022-08-14T11:12:22;4.07;;;3.67;;
22240;SDS011;11289;52.524;13.694;2022-08-14T11:15:02;5.85;;;4.28;;
22240;SDS011;11289;52.524;13.694;2022-08-14T11:17:31;5.15;;;3.75;;
22240;SDS011;11289;52.524;13.694;2022-08-14T11:19:59;6.47;;;4.10;;
22240;SDS011;11289;52.524;13.694;2022-08-14T11:22:26;5.50;;;4.80;;
22240;SDS011;11289;52.524;13.694;2022-08-14T11:24:55;4.63;;;4.22;;
22240;SDS011;11289;52.524;13.694;2022-08-14T11:27:31;6.57;;;3.63;;
22240;SDS011;11289;52.524;13.694;2022-08-14T11:29:59;6.10;;;4.38;;
22240;SDS011;11289;52.524;13.694;2022-08-14T11:32:27;6.25;;;4.15;;
22240;SDS011;11289;52.524;13.694;2022-08-14T11:34:55;6.32;;;4.10;;
22240;SDS011;11289;52.524;13.694;2022-08-14T11:37:23;7.03;;;4.28;;
22240;SDS011;11289;52.524;13.694;2022-08-14T11:39:49;5.68;;;4.13;;
22240;SDS011;11289;52.524;13.694;2022-08-14T11:42:19;6.25;;;5.35;;
22240;SDS011;11289;52.524;13.694;2022-08-14T11:44:51;6.38;;;3.95;;
22240;SDS011;11289;52.524;13.694;2022-08-14T11:47:20;6.10;;;3.97;;
22240;SDS011;11289;52.524;13.694;2022-08-14T11:49:46;5.35;;;4.70;;
22240;SDS011;11289;52.524;13.694;2022-08-14T11:52:15;4.25;;;3.72;;
22240;SDS011;11289;52.524;13.694;2022-08-14T11:54:42;4.13;;;3.72;;
22240;SDS011;11289;52.524;13.694;2022-08-14T11:57:14;7.20;;;4.10;;
22240;SDS011;11289;52.524;13.694;2022-08-14T11:59:40;6.90;;;4.38;;
22240;SDS011;11289;52.524;13.694;2022-08-14T12:02:10;4.80;;;3.45;;
22240;SDS011;11289;52.524;13.694;2022-08-14T12:04:47;4.80;;;4.40;;
22240;SDS011;11289;52.524;13.694;2022-08-14T12:07:16;5.45;;;4.38;;
22240;SDS011;11289;52.524;13.694;2022-08-14T12:09:43;4.72;;;3.80;;
22240;SDS011;11289;52.524;13.694;2022-08-14T12:12:17;5.07;;;3.92;;
22240;SDS011;11289;52.524;13.694;2022-08-14T12:14:51;4.03;;;3.70;;
22240;SDS011;11289;52.524;13.694;2022-08-14T12:17:24;3.92;;;3.33;;
22240;SDS011;11289;52.524;13.694;2022-08-14T12:19:55;8.18;;;3.28;;
22240;SDS011;11289;52.524;13.694;2022-08-14T12:22:42;5.68;;;3.58;;
22240;SDS011;11289;52.524;13.694;2022-08-14T12:25:10;4.93;;;2.70;;
22240;SDS011;11289;52.524;13.694;2022-08-14T12:27:38;3.88;;;3.10;;
22240;SDS011;11289;52.524;13.694;2022-08-14T12:30:09;5.47;;;3.03;;
22240;SDS011;11289;52.524;13.694;2022-08-14T12:32:41;5.78;;;3.10;;
22240;SDS011;11289;52.524;13.694;2022-08-14T12:35:10;3.15;;;2.85;;
22240;SDS011;11289;52.524;13.694;2022-08-14T12:37:36;5.55;;;3.00;;
22240;SDS011;11289;52.524;13.694;2022-08-14T12:40:09;3.85;;;2.83;;
22240;SDS011;11289;52.524;13.694;2022-08-14T12:42:39;5.30;;;3.80;;
22240;SDS011;11289;52.524;13.694;2022-08-14T12:45:05;4.13;;;3.00;;
22240;SDS011;11289;52.524;13.694;2022-08-14T12:47:32;5.38;;;3.15;;
22240;SDS011;11289;52.524;13.694;2022-08-14T12:49:57;4.82;;;2.95;;
22240;SDS011;11289;52.524;13.694;2022-08-14T12:52:27;3.67;;;2.67;;
22240;SDS011;11289;52.524;13.694;2022-08-14T12:55:01;4.63;;;2.50;;
22240;SDS011;11289;52.524;13.694;2022-08-14T12:57:45;5.35;;;3.55;;
22240;SDS011;11289;52.524;13.694;2022-08-14T13:00:16;8.25;;;2.83;;
22240;SDS011;11289;52.524;13.694;2022-08-14T13:02:51;3.50;;;2.58;;
22240;SDS011;11289;52.524;13.694;2022-08-14T13:05:22;4.97;;;2.85;;
22240;SDS011;11289;52.524;13.694;2022-08-14T13:07:49;3.10;;;2.85;;
22240;SDS011;11289;52.524;13.694;2022-08-14T13:10:16;3.85;;;3.42;;
22240;SDS011;11289;52.524;13.694;2022-08-14T13:12:45;3.50;;;3.17;;
22240;SDS011;11289;52.524;13.694;2022-08-14T13:15:12;3.92;;;3.63;;
22240;SDS011;11289;52.524;13.694;2022-08-14T13:17:48;6.07;;;2.88;;
22240;SDS011;11289;52.524;13.694;2022-08-14T13:20:17;4.45;;;3.15;;
22240;SDS011;11289;52.524;13.694;2022-08-14T13:22:44;4.60;;;3.58;;
22240;SDS011;11289;52.524;13.694;2022-08-14T13:25:14;4.38;;;3.13;;
22240;SDS011;11289;52.524;13.694;2022-08-14T13:30:11;3.20;;;2.78;;
22240;SDS011;11289;52.524;13.694;2022-08-14T13:32:38;3.85;;;2.85;;
22240;SDS011;11289;52.524;13.694;2022-08-14T13:35:05;3.20;;;2.67;;
22240;SDS011;11289;52.524;13.694;2022-08-14T13:37:31;3.97;;;2.83;;
22240;SDS011;11289;52.524;13.694;2022-08-14T13:39:57;3.47;;;3.03;;
22240;SDS011;11289;52.524;13.694;2022-08-14T13:42:24;3.60;;;2.55;;
22240;SDS011;11289;52.524;13.694;2022-08-14T13:44:52;7.53;;;2.90;;
22240;SDS011;11289;52.524;13.694;2022-08-14T13:47:19;5.13;;;2.95;;
22240;SDS011;11289;52.524;13.694;2022-08-14T13:49:46;2.95;;;2.60;;
22240;SDS011;11289;52.524;13.694;2022-08-14T13:52:13;2.42;;;2.15;;
22240;SDS011;11289;52.524;13.694;2022-08-14T13:54:45;2.67;;;2.30;;
22240;SDS011;11289;52.524;13.694;2022-08-14T13:57:13;4.00;;;2.65;;
22240;SDS011;11289;52.524;13.694;2022-08-14T13:59:50;3.25;;;2.58;;
22240;SDS011;11289;52.524;13.694;2022-08-14T14:02:17;3.47;;;2.28;;
22240;SDS011;11289;52.524;13.694;2022-08-14T14:04:46;4.85;;;2.33;;
22240;SDS011;11289;52.524;13.694;2022-08-14T14:07:13;3.15;;;2.00;;
22240;SDS011;11289;52.524;13.694;2022-08-14T14:09:41;2.83;;;1.70;;
22240;SDS011;11289;52.524;13.694;2022-08-14T14:12:08;1.75;;;1.63;;
22240;SDS011;11289;52.524;13.694;2022-08-14T14:14:35;4.32;;;2.10;;
22240;SDS011;11289;52.524;13.694;2022-08-14T14:17:04;2.40;;;2.15;;
22240;SDS011;11289;52.524;13.694;2022-08-14T14:19:30;2.65;;;2.30;;
22240;SDS011;11289;52.524;13.694;2022-08-14T14:22:03;4.45;;;2.70;;
22240;SDS011;11289;52.524;13.694;2022-08-14T14:24:33;3.85;;;2.15;;
22240;SDS011;11289;52.524;13.694;2022-08-14T14:26:59;5.32;;;2.05;;
22240;SDS011;11289;52.524;13.694;2022-08-14T14:29:28;3.33;;;1.98;;
22240;SDS011;11289;52.524;13.694;2022-08-14T14:31:54;2.40;;;2.20;;
22240;SDS011;11289;52.524;13.694;2022-08-14T14:34:23;3.65;;;2.38;;
22240;SDS011;11289;52.524;13.694;2022-08-14T14:36:50;7.97;;;3.10;;
22240;SDS011;11289;52.524;13.694;2022-08-14T14:39:16;6.18;;;2.90;;
22240;SDS011;11289;52.524;13.694;2022-08-14T14:41:45;2.47;;;2.10;;
22240;SDS011;11289;52.524;13.694;2022-08-14T14:44:15;4.57;;;2.05;;
22240;SDS011;11289;52.524;13.694;2022-08-14T14:46:49;5.32;;;2.90;;
22240;SDS011;11289;52.524;13.694;2022-08-14T14:49:15;2.85;;;2.25;;
22240;SDS011;11289;52.524;13.694;2022-08-14T14:51:43;7.20;;;2.78;;
22240;SDS011;11289;52.524;13.694;2022-08-14T14:54:10;4.43;;;2.50;;
22240;SDS011;11289;52.524;13.694;2022-08-14T14:56:37;7.00;;;3.30;;
22240;SDS011;11289;52.524;13.694;2022-08-14T14:59:03;5.53;;;2.97;;
22240;SDS011;11289;52.524;13.694;2022-08-14T15:01:31;6.32;;;5.03;;
22240;SDS011;11289;52.524;13.694;2022-08-14T15:03:59;11.50;;;3.17;;
22240;SDS011;11289;52.524;13.694;2022-08-14T15:06:25;5.65;;;2.83;;
22240;SDS011;11289;52.524;13.694;2022-08-14T15:08:51;2.88;;;2.67;;
22240;SDS011;11289;52.524;13.694;2022-08-14T15:11:17;6.68;;;2.78;;